createdAt,value
2018-04-26T00:03:23.933Z,13.67
2018-04-26T00:08:24.911Z,13.87
2018-04-26T00:13:26.050Z,11.23
2018-04-26T00:18:26.988Z,19.20
2018-04-26T00:23:27.954Z,17.07
2018-04-26T00:28:28.944Z,15.77
2018-04-26T00:33:29.950Z,13.03
2018-04-26T00:38:30.911Z,9.40
2018-04-26T00:43:31.928Z,19.60
2018-04-26T00:48:32.870Z,24.10
2018-04-26T00:53:33.814Z,15.93
2018-04-26T00:58:34.750Z,22.43
2018-04-26T01:03:35.708Z,21.70
2018-04-26T01:08:36.680Z,16.83
2018-04-26T01:13:37.637Z,21.27
2018-04-26T01:18:38.582Z,23.50
2018-04-26T01:23:39.554Z,27.10
2018-04-26T01:28:40.500Z,24.80
2018-04-26T01:33:41.460Z,25.53
2018-04-26T01:38:42.433Z,28.83
2018-04-26T01:43:43.408Z,24.97
2018-04-26T01:48:44.372Z,27.77
2018-04-26T01:53:45.359Z,33.83
2018-04-26T01:58:46.304Z,26.67
2018-04-26T02:03:47.248Z,35.37
2018-04-26T02:08:48.219Z,27.70
2018-04-26T02:13:49.201Z,28.37
2018-04-26T02:18:50.238Z,31.07
2018-04-26T02:23:51.153Z,33.30
2018-04-26T02:28:52.104Z,36.87
2018-04-26T02:33:53.069Z,34.30
2018-04-26T02:38:54.002Z,37.73
2018-04-26T02:43:54.979Z,33.93
2018-04-26T02:48:55.949Z,36.63
2018-04-26T02:53:56.894Z,35.57
2018-04-26T02:58:57.839Z,44.90
2018-04-26T03:03:58.791Z,34.33
2018-04-26T03:08:59.738Z,41.20
2018-04-26T03:14:00.692Z,38.50
2018-04-26T03:19:01.668Z,37.43
2018-04-26T03:24:02.617Z,34.50
2018-04-26T03:29:03.612Z,36.43
2018-04-26T03:34:04.585Z,30.10
2018-04-26T03:39:05.560Z,33.40
2018-04-26T03:44:06.532Z,32.80
2018-04-26T03:49:07.496Z,29.03
2018-04-26T03:54:08.450Z,38.03
2018-04-26T03:59:09.412Z,32.17
2018-04-26T04:04:22.793Z,47.13
2018-04-26T04:09:23.758Z,29.73
2018-04-26T04:14:24.723Z,39.70
2018-04-26T04:19:25.652Z,36.70
2018-04-26T04:24:26.628Z,33.40
2018-04-26T04:29:27.589Z,35.43
2018-04-26T04:34:28.555Z,54.60
2018-04-26T04:39:29.500Z,33.17
2018-04-26T04:44:30.469Z,34.10
2018-04-26T04:49:31.428Z,30.13
2018-04-26T04:54:32.387Z,29.07
2018-04-26T04:59:33.385Z,24.50
2018-04-26T05:04:34.322Z,20.83
2018-04-26T05:09:35.267Z,23.13
2018-04-26T05:14:36.201Z,18.00
2018-04-26T05:19:37.190Z,18.97
2018-04-26T05:24:38.127Z,20.30
2018-04-26T05:29:39.101Z,17.33
2018-04-26T05:34:40.061Z,18.73
2018-04-26T05:39:41.001Z,25.20
2018-04-26T05:44:41.983Z,17.53
2018-04-26T05:49:42.931Z,20.60
2018-04-26T05:54:43.895Z,24.40
2018-04-26T05:59:44.847Z,23.20
2018-04-26T06:04:45.811Z,22.43
2018-04-26T06:09:46.793Z,19.40
2018-04-26T06:14:47.815Z,23.53
2018-04-26T06:19:48.775Z,23.47
2018-04-26T06:24:49.719Z,17.67
2018-04-26T06:29:50.683Z,17.13
2018-04-26T06:34:51.664Z,30.87
2018-04-26T06:39:52.639Z,19.97
2018-04-26T06:44:53.610Z,21.93
2018-04-26T06:49:54.644Z,19.60
2018-04-26T06:54:55.555Z,26.20
2018-04-26T06:59:56.501Z,18.83
2018-04-26T07:04:57.460Z,16.50
2018-04-26T07:09:58.432Z,20.20
2018-04-26T07:14:59.406Z,16.03
2018-04-26T07:20:00.383Z,14.83
2018-04-26T07:25:01.405Z,24.00
2018-04-26T07:30:02.379Z,15.13
2018-04-26T07:35:03.349Z,14.40
2018-04-26T07:40:04.320Z,14.43
2018-04-26T07:45:05.357Z,15.37
2018-04-26T07:50:06.357Z,12.37
2018-04-26T07:55:07.327Z,20.83
2018-04-26T08:00:08.293Z,11.83
2018-04-26T08:05:09.267Z,9.60
2018-04-26T08:10:10.234Z,14.97
2018-04-26T08:15:11.207Z,15.00
2018-04-26T08:20:12.172Z,7.13
2018-04-26T08:25:13.148Z,6.90
2018-04-26T08:30:14.111Z,11.00
2018-04-26T08:35:15.082Z,10.90
2018-04-26T08:40:16.032Z,14.77
2018-04-26T08:45:17.051Z,12.20
2018-04-26T08:50:18.011Z,8.20
2018-04-26T08:55:18.972Z,12.73
2018-04-26T09:00:19.928Z,15.73
2018-04-26T09:05:20.895Z,16.07
2018-04-26T09:10:21.873Z,6.20
2018-04-26T09:15:22.880Z,7.00
2018-04-26T09:20:23.826Z,18.90
2018-04-26T09:25:24.752Z,9.40
2018-04-26T09:30:25.700Z,11.30
2018-04-26T09:35:26.671Z,9.33
2018-04-26T09:40:27.653Z,10.80
2018-04-26T09:45:28.640Z,9.97
2018-04-26T09:50:29.632Z,7.57
2018-04-26T09:55:30.602Z,8.77
2018-04-26T10:00:31.601Z,13.57
2018-04-26T10:05:38.712Z,7.00
2018-04-26T10:10:39.728Z,9.17
2018-04-26T10:15:40.694Z,6.83
2018-04-26T10:20:41.672Z,10.33
2018-04-26T10:25:42.667Z,9.20
2018-04-26T10:30:43.623Z,7.47
2018-04-26T10:35:44.599Z,7.20
2018-04-26T10:40:45.554Z,11.90
2018-04-26T10:45:46.569Z,18.10
2018-04-26T10:50:47.551Z,8.13
2018-04-26T10:55:48.519Z,11.33
2018-04-26T11:00:49.490Z,11.13
2018-04-26T11:05:50.488Z,8.00
2018-04-26T11:10:51.476Z,10.33
2018-04-26T11:15:52.435Z,6.40
2018-04-26T11:20:53.438Z,7.73
2018-04-26T11:25:54.440Z,7.97
2018-04-26T11:30:55.438Z,5.07
2018-04-26T11:35:56.407Z,5.33
2018-04-26T11:40:57.366Z,8.13
2018-04-26T11:45:58.395Z,4.23
2018-04-26T11:50:59.373Z,8.43
2018-04-26T11:56:00.326Z,8.07
2018-04-26T12:01:01.299Z,5.37
2018-04-26T12:06:02.274Z,6.20
2018-04-26T12:11:03.287Z,4.63
2018-04-26T12:16:04.280Z,6.00
2018-04-26T12:21:05.250Z,8.43
2018-04-26T12:26:06.213Z,6.23
2018-04-26T12:31:07.176Z,6.60
2018-04-26T12:36:08.149Z,13.40
2018-04-26T12:41:09.125Z,6.00
2018-04-26T12:46:10.204Z,9.83
2018-04-26T12:51:11.194Z,7.63
2018-04-26T12:56:12.260Z,9.63
2018-04-26T13:01:13.175Z,4.67
2018-04-26T13:06:14.185Z,5.17
2018-04-26T13:11:15.139Z,6.53
2018-04-26T13:16:16.111Z,4.97
2018-04-26T13:21:18.344Z,8.23
2018-04-26T13:26:19.284Z,6.80
2018-04-26T13:31:20.254Z,7.73
2018-04-26T13:36:21.322Z,12.67
2018-04-26T13:41:22.221Z,11.63
2018-04-26T13:46:23.328Z,9.17
2018-04-26T13:51:24.247Z,9.50
2018-04-26T13:56:25.230Z,6.00
2018-04-26T14:01:26.171Z,7.47
2018-04-26T14:06:27.156Z,7.00
2018-04-26T14:11:28.111Z,12.40
2018-04-26T14:16:29.075Z,16.20
2018-04-26T14:21:30.077Z,7.50
2018-04-26T14:26:31.085Z,11.97
2018-04-26T14:31:32.048Z,5.43
2018-04-26T14:36:33.033Z,10.07
2018-04-26T14:41:34.058Z,13.33
2018-04-26T14:46:35.068Z,8.60
2018-04-26T14:51:36.045Z,6.50
2018-04-26T14:56:37.026Z,7.13
2018-04-26T15:01:37.979Z,19.37
2018-04-26T15:06:38.974Z,6.70
2018-04-26T15:11:39.948Z,7.50
2018-04-26T15:16:40.919Z,16.10
2018-04-26T15:21:41.906Z,9.03
2018-04-26T15:26:42.869Z,12.13
2018-04-26T15:31:43.897Z,8.00
2018-04-26T15:36:44.893Z,10.80
2018-04-26T15:41:45.863Z,25.27
2018-04-26T15:46:46.872Z,11.50
2018-04-26T15:51:47.845Z,7.40
2018-04-26T15:57:01.118Z,6.40
2018-04-26T16:08:06.323Z,9.43
2018-04-26T16:13:25.838Z,18.43
2018-04-26T16:18:42.751Z,11.23
2018-04-26T16:24:02.316Z,8.70
2018-04-26T16:29:21.887Z,10.70
2018-04-26T16:34:48.764Z,13.03
2018-04-26T16:39:49.731Z,17.83
2018-04-26T16:44:50.737Z,6.10
2018-04-26T16:49:51.743Z,11.63
2018-04-26T16:54:52.715Z,24.93
2018-04-26T16:59:53.677Z,7.83
2018-04-26T17:04:54.727Z,9.00
2018-04-26T17:09:55.658Z,8.73
2018-04-26T17:14:56.644Z,12.13
2018-04-26T17:19:57.641Z,23.30
2018-04-26T17:24:58.612Z,8.37
2018-04-26T17:29:59.671Z,8.80
2018-04-26T17:35:00.663Z,14.30
2018-04-26T17:40:01.648Z,20.43
2018-04-26T17:45:02.664Z,14.20
2018-04-26T17:50:03.696Z,10.47
2018-04-26T17:55:04.689Z,13.10
2018-04-26T18:00:05.707Z,15.03
2018-04-26T18:05:06.700Z,16.67
2018-04-26T18:10:07.675Z,15.77
2018-04-26T18:15:08.672Z,31.43
2018-04-26T18:20:09.672Z,20.50
2018-04-26T18:25:10.673Z,22.47
2018-04-26T18:30:11.628Z,19.47
2018-04-26T18:35:12.635Z,17.97
2018-04-26T18:40:13.630Z,15.43
2018-04-26T18:45:14.624Z,26.00
2018-04-26T18:50:15.699Z,24.43
2018-04-26T18:55:16.712Z,28.27
2018-04-26T19:00:17.709Z,23.33
2018-04-26T19:05:18.718Z,28.30
2018-04-26T19:10:19.710Z,18.30
2018-04-26T19:15:20.704Z,18.37
2018-04-26T19:20:21.709Z,25.57
2018-04-26T19:25:22.750Z,22.07
2018-04-26T19:30:23.755Z,24.87
2018-04-26T19:35:24.771Z,25.13
2018-04-26T19:40:25.804Z,21.97
2018-04-26T19:45:29.480Z,13.97
2018-04-26T19:50:30.537Z,19.07
2018-04-26T19:55:31.574Z,20.10
2018-04-26T20:00:32.577Z,24.03
2018-04-26T20:05:33.575Z,31.13
2018-04-26T20:10:34.592Z,13.20
2018-04-26T20:15:35.619Z,22.23
2018-04-26T20:20:36.644Z,17.10
2018-04-26T20:25:37.657Z,25.23
2018-04-26T20:30:38.641Z,22.77
2018-04-26T20:35:39.635Z,25.23
2018-04-26T20:40:40.607Z,26.43
2018-04-26T20:45:41.633Z,23.27
2018-04-26T20:50:42.636Z,21.43
2018-04-26T20:55:43.588Z,23.07
2018-04-26T21:00:44.588Z,28.10
2018-04-26T21:05:45.548Z,34.03
2018-04-26T21:10:46.540Z,29.87
2018-04-26T21:15:47.506Z,20.60
2018-04-26T21:20:48.469Z,28.20
2018-04-26T21:25:49.421Z,29.97
2018-04-26T21:30:50.400Z,19.73
2018-04-26T21:35:51.371Z,21.93
2018-04-26T21:40:52.334Z,30.00
2018-04-26T21:45:53.284Z,25.53
2018-04-26T21:51:00.355Z,29.20
2018-04-26T21:56:07.480Z,26.43
2018-04-26T22:01:14.552Z,20.40
2018-04-26T22:06:15.541Z,19.93
2018-04-26T22:11:16.499Z,27.30
2018-04-26T22:16:17.463Z,20.43
2018-04-26T22:21:18.416Z,21.83
2018-04-26T22:26:19.385Z,18.83
2018-04-26T22:31:20.349Z,27.73
2018-04-26T22:36:21.294Z,20.83
2018-04-26T22:41:22.255Z,17.10
2018-04-26T22:46:23.209Z,22.03
2018-04-26T22:51:24.212Z,19.43
2018-04-26T22:56:25.186Z,20.23
2018-04-26T23:01:26.137Z,24.03
2018-04-26T23:06:27.142Z,20.50
2018-04-26T23:11:28.121Z,20.80
2018-04-26T23:16:29.085Z,18.77
2018-04-26T23:21:30.052Z,24.90
2018-04-26T23:26:31.009Z,30.67
2018-04-26T23:31:31.980Z,23.03
2018-04-26T23:36:33.146Z,18.87
2018-04-26T23:41:34.150Z,19.23
2018-04-26T23:46:35.107Z,23.03
2018-04-26T23:51:36.112Z,19.70
2018-04-26T23:56:37.047Z,18.83
